Time;durP1;ratioP1;P1;durP2;ratioP2;P2;SDS_P1;SDS_P2;PMS_P1;PMS_P2;Temp;Humidity;BMP_temperature;BMP_pressure;BME280_temperature;BME280_humidity;BME280_pressure;Samples;Min_cycle;Max_cycle;Signal;HPM_P1;HPM_P2
2022/04/28 00:00:40;;;;;;;4.28;2.00;;;;;;;13.46;60.03;94753.53;5113244;28;20061;-72
2022/04/28 00:03:07;;;;;;;4.95;2.42;;;;;;;13.50;59.75;94764.50;5112953;28;20036;-73
2022/04/28 00:05:33;;;;;;;4.20;2.42;;;;;;;13.55;59.40;94764.88;5096159;28;20040;-72
2022/04/28 00:07:58;;;;;;;3.13;2.10;;;;;;;13.50;59.23;94773.13;5113527;28;20036;-72
2022/04/28 00:10:23;;;;;;;2.90;2.05;;;;;;;13.52;59.75;94767.78;5108136;28;20070;-72
2022/04/28 00:12:49;;;;;;;4.53;2.22;;;;;;;13.63;61.48;94775.41;5093466;28;20506;-73
2022/04/28 00:15:14;;;;;;;5.70;2.15;;;;;;;13.66;60.89;94779.53;5106446;28;20051;-72
2022/04/28 00:17:40;;;;;;;3.45;2.30;;;;;;;13.65;61.01;94776.09;5112686;28;20023;-72
2022/04/28 00:20:06;;;;;;;3.25;2.35;;;;;;;13.67;61.30;94774.13;5108672;28;20036;-73
2022/04/28 00:22:32;;;;;;;6.13;2.53;;;;;;;13.59;60.51;94766.22;5114174;28;20036;-73
2022/04/28 00:24:57;;;;;;;4.15;2.28;;;;;;;13.63;61.40;94780.63;5108380;28;20577;-72
2022/04/28 00:27:22;;;;;;;3.42;2.35;;;;;;;13.61;60.30;94774.72;5096803;28;20032;-72
2022/04/28 00:29:48;;;;;;;5.97;2.20;;;;;;;13.62;60.67;94782.44;5102155;28;20039;-72
2022/04/28 00:32:14;;;;;;;4.18;2.20;;;;;;;13.58;59.97;94775.03;5112053;28;20031;-72
2022/04/28 00:34:39;;;;;;;5.70;2.30;;;;;;;13.54;59.43;94784.94;5111486;28;20081;-72
2022/04/28 00:37:09;;;;;;;4.03;2.05;;;;;;;13.54;60.00;94794.53;5114320;28;20024;-72
2022/04/28 00:39:36;;;;;;;4.80;3.35;;;;;;;13.49;59.82;94795.00;5112894;28;20032;-72
2022/04/28 00:42:01;;;;;;;2.97;2.35;;;;;;;13.43;61.32;94792.97;5111975;28;20035;-73
2022/04/28 00:44:27;;;;;;;3.40;2.28;;;;;;;13.35;61.69;94785.84;5110060;28;20144;-72
2022/04/28 00:46:52;;;;;;;3.88;2.10;;;;;;;13.32;61.98;94793.97;5110755;28;20039;-72
2022/04/28 00:52:02;;;;;;;5.38;2.35;;;;;;;13.09;60.34;94800.47;5097710;28;20673;-73
2022/04/28 00:54:28;;;;;;;4.38;1.95;;;;;;;13.00;60.49;94801.31;5082216;28;20036;-73
2022/04/28 00:56:53;;;;;;;5.10;2.15;;;;;;;12.82;61.27;94794.25;5094647;28;20091;-72
2022/04/28 00:59:19;;;;;;;4.00;2.25;;;;;;;12.89;60.75;94797.09;5111220;28;20032;-72
2022/04/28 01:01:44;;;;;;;4.13;2.40;;;;;;;12.88;61.22;94791.06;5111580;28;20054;-72
2022/04/28 01:04:10;;;;;;;3.50;2.20;;;;;;;12.89;60.82;94794.50;5104058;28;20081;-72
2022/04/28 01:06:36;;;;;;;3.35;2.08;;;;;;;12.96;60.64;94796.41;5102490;28;20036;-72
2022/04/28 01:09:01;;;;;;;3.47;2.20;;;;;;;12.96;61.38;94800.81;5107741;28;20060;-72
2022/04/28 01:11:27;;;;;;;4.97;2.42;;;;;;;12.99;61.23;94804.91;5095138;28;20012;-72
2022/04/28 01:13:52;;;;;;;3.80;2.33;;;;;;;13.04;60.77;94810.50;5093647;28;20032;-73
2022/04/28 01:16:18;;;;;;;4.13;2.30;;;;;;;12.94;61.08;94810.53;5097297;28;20012;-72
2022/04/28 01:18:43;;;;;;;4.07;2.22;;;;;;;12.89;61.91;94816.16;5095646;28;20397;-72
2022/04/28 01:21:08;;;;;;;5.07;2.63;;;;;;;12.84;61.30;94812.34;5112926;28;20443;-72
2022/04/28 01:23:35;;;;;;;6.20;2.53;;;;;;;12.84;62.32;94810.59;5107732;28;20059;-72
2022/04/28 01:26:01;;;;;;;4.93;2.22;;;;;;;12.82;63.58;94815.09;5092035;28;20505;-72
2022/04/28 01:28:27;;;;;;;4.55;2.00;;;;;;;12.80;64.23;94819.63;5109763;28;20043;-72
2022/04/28 01:30:52;;;;;;;4.80;2.20;;;;;;;12.72;64.57;94814.28;5110794;28;20031;-72
2022/04/28 01:33:18;;;;;;;2.80;1.98;;;;;;;12.73;64.86;94811.56;5075823;28;20027;-73
2022/04/28 01:35:43;;;;;;;5.65;2.08;;;;;;;12.64;64.59;94811.56;5091939;28;20032;-73
2022/04/28 01:38:09;;;;;;;4.80;2.30;;;;;;;12.58;64.99;94814.72;5091260;28;20031;-73
2022/04/28 01:40:34;;;;;;;5.63;2.28;;;;;;;12.60;65.12;94825.84;5109471;28;20469;-72
2022/04/28 01:42:59;;;;;;;5.30;2.20;;;;;;;12.49;65.15;94819.81;5101889;28;20073;-72
2022/04/28 01:45:25;;;;;;;3.33;2.08;;;;;;;12.47;65.11;94824.31;5111170;28;20030;-72
2022/04/28 01:47:50;;;;;;;5.47;2.45;;;;;;;12.40;65.41;94818.03;5112919;28;20030;-72
2022/04/28 01:50:16;;;;;;;4.25;2.33;;;;;;;12.29;65.52;94823.38;5106713;28;20114;-73
2022/04/28 01:55:25;;;;;;;3.70;2.05;;;;;;;12.20;66.15;94821.59;5094516;28;20046;-72
2022/04/28 01:57:51;;;;;;;4.10;2.33;;;;;;;12.20;66.31;94826.78;5105256;28;20115;-73
2022/04/28 02:00:16;;;;;;;4.05;2.20;;;;;;;12.14;65.35;94827.34;5093701;28;20032;-72
2022/04/28 02:02:42;;;;;;;3.20;2.20;;;;;;;12.12;65.49;94834.47;5094429;28;20031;-73
2022/04/28 02:05:08;;;;;;;4.38;2.33;;;;;;;12.06;66.09;94833.22;5078636;28;20482;-73
2022/04/28 02:07:33;;;;;;;5.40;2.83;;;;;;;12.02;65.43;94832.69;5091249;28;20050;-73
2022/04/28 02:09:59;;;;;;;3.92;2.30;;;;;;;11.95;65.42;94822.94;5090589;28;20032;-73
2022/04/28 02:12:25;;;;;;;4.22;2.75;;;;;;;11.98;65.30;94836.53;5095713;28;20036;-72
2022/04/28 02:14:51;;;;;;;4.82;2.33;;;;;;;11.96;65.55;94833.22;5091785;28;20088;-72
2022/04/28 02:17:24;;;;;;;4.47;2.60;;;;;;;11.97;65.31;94834.03;5074615;28;20036;-72
2022/04/28 02:19:49;;;;;;;5.43;2.80;;;;;;;12.04;65.53;94842.97;5106553;28;20050;-73
2022/04/28 02:22:15;;;;;;;6.53;2.15;;;;;;;12.03;65.45;94839.53;5111010;28;20016;-74
2022/04/28 02:24:40;;;;;;;4.07;2.08;;;;;;;12.06;66.05;94843.63;5079461;28;20057;-73
2022/04/28 02:27:08;;;;;;;3.20;2.30;;;;;;;11.99;65.76;94832.13;5090786;28;20032;-72
2022/04/28 02:29:33;;;;;;;3.75;2.53;;;;;;;12.06;65.46;94839.28;5077851;28;20032;-72
2022/04/28 02:31:59;;;;;;;3.75;2.55;;;;;;;12.04;65.68;94846.41;5100637;28;20028;-72
2022/04/28 02:34:24;;;;;;;4.88;3.15;;;;;;;11.96;66.29;94838.44;5106197;28;20405;-72
2022/04/28 02:36:49;;;;;;;5.60;2.70;;;;;;;12.01;66.29;94840.66;5094169;28;20514;-72
2022/04/28 02:39:17;;;;;;;6.78;3.03;;;;;;;12.02;66.66;94840.50;5089697;28;20608;-72
2022/04/28 02:41:42;;;;;;;5.88;3.60;;;;;;;12.02;66.95;94845.69;5095923;28;20106;-73
2022/04/28 02:44:08;;;;;;;6.68;3.00;;;;;;;11.98;67.09;94844.34;5109727;28;20599;-72
2022/04/28 02:46:33;;;;;;;7.55;2.90;;;;;;;12.02;67.32;94857.91;5101089;28;20047;-73
2022/04/28 02:48:59;;;;;;;4.45;2.67;;;;;;;11.99;67.31;94848.56;5096353;28;20028;-72
2022/04/28 02:51:24;;;;;;;6.80;3.53;;;;;;;11.96;67.29;94846.25;5110531;28;20027;-72
2022/04/28 02:53:50;;;;;;;7.88;3.15;;;;;;;12.00;67.18;94852.81;5111141;28;20038;-72
2022/04/28 02:56:15;;;;;;;6.10;2.95;;;;;;;11.98;67.37;94852.16;5103475;28;20062;-72
2022/04/28 02:58:40;;;;;;;4.38;2.65;;;;;;;11.95;67.88;94857.63;5090398;28;20039;-73
2022/04/28 03:01:06;;;;;;;5.60;3.42;;;;;;;11.98;67.80;94859.97;5090415;28;20043;-72
2022/04/28 03:03:31;;;;;;;7.03;3.40;;;;;;;11.99;67.55;94859.00;5095846;28;20058;-73
2022/04/28 03:11:25;;;;;;;6.60;3.60;;;;;;;11.97;67.67;94858.28;5100100;28;20035;-72
2022/04/28 03:13:50;;;;;;;9.80;3.33;;;;;;;12.01;67.63;94866.69;5099257;28;20039;-72
2022/04/28 03:16:16;;;;;;;5.45;3.05;;;;;;;12.01;67.83;94869.28;5097377;28;20040;-72
2022/04/28 03:18:42;;;;;;;5.53;3.20;;;;;;;12.03;67.87;94869.94;5109040;28;20185;-73
2022/04/28 03:21:08;;;;;;;5.55;2.90;;;;;;;12.04;67.54;94877.63;5087670;28;20031;-73
2022/04/28 03:23:34;;;;;;;5.90;3.13;;;;;;;12.04;67.77;94877.63;5107314;28;20020;-72
2022/04/28 03:25:59;;;;;;;6.78;3.30;;;;;;;12.04;68.39;94877.63;5102198;28;20036;-73
2022/04/28 03:28:25;;;;;;;7.18;2.92;;;;;;;12.04;68.42;94882.84;5111132;28;20024;-72
2022/04/28 03:30:50;;;;;;;6.10;3.33;;;;;;;12.02;68.36;94886.53;5110935;28;20436;-72
2022/04/28 03:33:16;;;;;;;5.88;3.00;;;;;;;12.02;68.50;94899.56;5093427;28;20416;-72
2022/04/28 03:35:41;;;;;;;4.20;3.00;;;;;;;11.94;68.82;94892.41;5109735;28;20105;-72
2022/04/28 03:38:13;;;;;;;7.40;3.13;;;;;;;12.01;68.71;94901.34;5111010;28;20027;-72
2022/04/28 03:40:42;;;;;;;6.65;3.20;;;;;;;12.02;68.64;94900.38;5094611;28;20032;-73
2022/04/28 03:43:07;;;;;;;4.35;3.25;;;;;;;12.04;68.40;94901.06;5104937;28;20024;-72
2022/04/28 03:45:33;;;;;;;5.35;3.58;;;;;;;12.10;68.68;94906.72;5103343;28;20042;-72
2022/04/28 03:47:59;;;;;;;7.75;3.80;;;;;;;12.10;68.80;94907.53;5089512;28;20047;-72
2022/04/28 03:50:28;;;;;;;4.38;3.53;;;;;;;12.12;68.77;94909.97;5104011;28;20043;-72
2022/04/28 03:52:54;;;;;;;4.63;3.22;;;;;;;12.15;68.74;94909.75;5108924;28;20019;-72
2022/04/28 03:55:19;;;;;;;9.93;3.30;;;;;;;12.23;68.59;94917.66;5094333;28;20044;-72
2022/04/28 03:57:45;;;;;;;5.72;3.67;;;;;;;12.26;68.39;94917.44;5110231;28;20020;-72
2022/04/28 04:00:11;;;;;;;6.00;2.83;;;;;;;12.27;68.41;94912.06;5088589;28;20035;-72
2022/04/28 04:02:36;;;;;;;4.20;3.63;;;;;;;12.27;69.00;94919.88;5101989;28;20020;-72
2022/04/28 04:05:02;;;;;;;6.47;3.60;;;;;;;12.26;69.00;94914.81;5091451;28;20560;-72
2022/04/28 04:07:31;;;;;;;4.57;3.10;;;;;;;12.36;69.06;94917.44;5098984;28;20524;-72
2022/04/28 04:09:57;;;;;;;4.93;3.20;;;;;;;12.39;68.58;94925.78;5092407;28;20532;-72
2022/04/28 04:12:22;;;;;;;4.65;3.30;;;;;;;12.47;67.80;94922.50;5109110;28;20481;-73
2022/04/28 04:14:48;;;;;;;6.80;3.45;;;;;;;12.44;67.98;94928.00;5110008;28;20505;-72
2022/04/28 04:17:14;;;;;;;5.20;3.80;;;;;;;12.44;68.26;94923.59;5111264;28;20092;-72
2022/04/28 04:19:39;;;;;;;5.22;3.60;;;;;;;12.50;67.92;94923.06;5109360;28;20451;-72
2022/04/28 04:22:05;;;;;;;5.25;4.65;;;;;;;12.56;67.75;94931.28;5113827;27;20030;-72
2022/04/28 04:24:30;;;;;;;6.13;4.13;;;;;;;12.57;67.73;94925.16;5112916;28;20425;-72
2022/04/28 04:26:57;;;;;;;4.75;4.10;;;;;;;12.60;67.81;94925.69;5092755;28;20024;-72
2022/04/28 04:29:22;;;;;;;5.63;3.90;;;;;;;12.66;67.09;94921.72;5128681;27;20573;-72
2022/04/28 04:34:32;;;;;;;6.75;4.50;;;;;;;12.82;66.04;94932.41;5112585;28;20061;-72
2022/04/28 04:36:57;;;;;;;5.07;3.72;;;;;;;12.84;67.01;94935.72;5113853;28;20023;-72
2022/04/28 04:39:22;;;;;;;5.72;5.13;;;;;;;12.77;67.07;94928.56;5113590;28;20400;-73
2022/04/28 04:41:48;;;;;;;7.97;4.82;;;;;;;12.86;66.92;94931.16;5112124;28;20576;-73
2022/04/28 04:44:14;;;;;;;7.78;5.07;;;;;;;12.92;66.88;94935.00;5113577;28;20069;-73
2022/04/28 04:46:42;;;;;;;6.85;5.22;;;;;;;12.94;67.01;94933.91;5113038;28;20028;-73
2022/04/28 04:49:07;;;;;;;9.73;5.13;;;;;;;12.85;66.42;94923.50;5112206;27;20032;-73
2022/04/28 04:51:33;;;;;;;6.57;5.13;;;;;;;12.94;66.04;94939.13;5112400;28;20086;-73
2022/04/28 04:53:58;;;;;;;5.72;5.13;;;;;;;12.97;66.34;94943.22;5091530;28;20040;-73
2022/04/28 04:56:24;;;;;;;5.97;5.38;;;;;;;13.04;65.86;94944.34;5104089;28;20084;-73
2022/04/28 04:58:50;;;;;;;6.78;6.00;;;;;;;13.00;66.58;94948.16;5103712;28;20089;-72
2022/04/28 05:01:15;;;;;;;7.18;6.47;;;;;;;12.91;67.19;94957.66;5105973;28;20539;-73
2022/04/28 05:03:41;;;;;;;7.65;6.47;;;;;;;12.93;67.10;94945.31;5089733;28;20028;-72
2022/04/28 05:06:07;;;;;;;6.80;5.88;;;;;;;12.92;67.08;94929.78;5101487;27;20024;-73
2022/04/28 05:08:32;;;;;;;7.82;7.07;;;;;;;13.03;67.17;94962.72;5107758;28;20038;-72
2022/04/28 05:10:58;;;;;;;8.52;6.90;;;;;;;12.94;67.17;94959.97;5110616;28;20062;-73
2022/04/28 05:13:23;;;;;;;7.40;5.93;;;;;;;13.02;66.98;94961.91;5093491;28;20027;-73
2022/04/28 05:15:48;;;;;;;7.55;5.60;;;;;;;13.00;66.83;94963.00;5113000;28;20531;-73
2022/04/28 05:18:14;;;;;;;6.50;5.07;;;;;;;12.93;66.59;94968.78;5093186;28;20081;-73
2022/04/28 05:20:39;;;;;;;7.47;5.40;;;;;;;12.91;66.44;94968.06;5112229;28;20038;-73
2022/04/28 05:23:05;;;;;;;6.20;5.60;;;;;;;12.91;66.17;94975.91;5113468;28;20031;-73
2022/04/28 05:25:30;;;;;;;5.40;4.50;;;;;;;12.87;66.04;94979.75;5108532;28;20027;-73
2022/04/28 05:27:56;;;;;;;4.10;3.70;;;;;;;12.77;66.25;94978.91;5107451;28;20031;-73
2022/04/28 05:30:22;;;;;;;5.22;4.70;;;;;;;12.75;65.42;94981.66;5112285;28;20497;-72
2022/04/28 05:32:47;;;;;;;3.17;2.80;;;;;;;12.74;65.01;94984.41;5086781;28;20053;-73
2022/04/28 05:35:13;;;;;;;3.15;2.60;;;;;;;12.69;65.00;94984.81;5095728;28;20470;-73
2022/04/28 05:37:39;;;;;;;3.20;2.40;;;;;;;12.65;65.12;94974.81;5092062;28;20035;-73
2022/04/28 05:40:05;;;;;;;4.47;2.75;;;;;;;12.62;65.08;94981.09;5097443;28;20028;-73
2022/04/28 05:47:59;;;;;;;4.07;2.33;;;;;;;12.55;64.95;94992.19;5091476;28;20105;-72
2022/04/28 05:50:26;;;;;;;2.63;1.90;;;;;;;12.53;64.67;94995.75;5098050;28;20451;-73
2022/04/28 05:52:51;;;;;;;3.85;1.75;;;;;;;12.51;64.41;95000.28;5093955;28;20031;-73
2022/04/28 05:55:17;;;;;;;2.70;1.80;;;;;;;12.46;64.42;95002.47;5073761;28;20044;-73
2022/04/28 05:57:42;;;;;;;3.13;1.80;;;;;;;12.32;64.79;95005.44;5110800;28;20517;-72
2022/04/28 06:00:08;;;;;;;3.28;1.70;;;;;;;12.27;64.94;95008.44;5112946;28;20031;-73
2022/04/28 06:02:34;;;;;;;2.78;1.92;;;;;;;12.25;64.71;94993.91;5112635;28;20501;-74
2022/04/28 06:05:00;;;;;;;2.10;1.50;;;;;;;12.13;64.81;95015.81;5111440;28;20040;-73
2022/04/28 06:07:25;;;;;;;2.85;1.38;;;;;;;12.05;65.04;95008.63;5111313;28;20112;-73
2022/04/28 06:09:51;;;;;;;1.63;1.20;;;;;;;11.99;65.03;95009.16;5112724;28;20028;-73
2022/04/28 06:12:17;;;;;;;2.67;1.42;;;;;;;11.99;65.70;95020.41;5112514;28;20027;-73
2022/04/28 06:14:43;;;;;;;2.60;1.40;;;;;;;11.90;65.63;95015.16;5110997;28;20054;-73
2022/04/28 06:17:08;;;;;;;2.50;1.10;;;;;;;11.90;65.56;95021.19;5111145;28;20028;-73
2022/04/28 06:19:34;;;;;;;2.65;1.50;;;;;;;11.95;65.72;95019.03;5111139;28;20473;-73
2022/04/28 06:21:59;;;;;;;5.47;1.48;;;;;;;11.96;65.84;95022.44;5112291;28;20447;-73
2022/04/28 06:24:25;;;;;;;1.80;1.27;;;;;;;11.93;65.97;95025.31;5111021;28;20509;-73
2022/04/28 06:26:51;;;;;;;2.55;1.50;;;;;;;11.93;66.01;95026.13;5112106;28;20038;-73
2022/04/28 06:29:16;;;;;;;2.30;1.40;;;;;;;12.03;65.64;95032.19;5110993;28;20405;-73
2022/04/28 06:31:45;;;;;;;1.75;1.10;;;;;;;11.83;65.80;95023.44;5093829;28;20027;-73
2022/04/28 06:34:11;;;;;;;3.95;1.42;;;;;;;11.81;66.24;95029.72;5112126;28;20031;-73
2022/04/28 06:36:36;;;;;;;2.10;1.10;;;;;;;11.88;66.04;95028.31;5112156;28;20027;-73
2022/04/28 06:39:02;;;;;;;2.80;1.50;;;;;;;11.89;66.46;95034.31;5110723;28;20024;-73
2022/04/28 06:41:28;;;;;;;3.13;1.67;;;;;;;11.91;66.43;95037.63;5111971;28;20545;-73
2022/04/28 06:43:55;;;;;;;6.82;5.57;;;;;;;11.89;66.48;95029.13;5110974;28;20111;-73
2022/04/28 06:46:20;;;;;;;5.78;5.05;;;;;;;12.02;66.02;95027.94;5110445;28;20031;-73
2022/04/28 06:48:47;;;;;;;7.38;2.40;;;;;;;12.04;65.71;95039.06;5110575;28;20042;-73
2022/04/28 06:51:12;;;;;;;10.10;7.20;;;;;;;12.03;65.54;95034.78;5110519;28;20032;-73
2022/04/28 06:53:38;;;;;;;3.28;1.95;;;;;;;12.10;65.33;95042.09;5111725;28;20023;-73
2022/04/28 06:56:05;;;;;;;3.97;2.10;;;;;;;12.10;65.38;95026.47;5111642;28;20032;-73
2022/04/28 06:58:30;;;;;;;11.73;7.07;;;;;;;12.06;65.53;95041.53;5110469;28;20031;-73
2022/04/28 07:00:55;;;;;;;4.32;1.80;;;;;;;11.80;65.94;95041.91;5111553;28;20426;-73
2022/04/28 07:03:21;;;;;;;2.80;1.10;;;;;;;11.84;65.75;95052.91;5110482;28;20496;-73
2022/04/28 07:05:47;;;;;;;3.67;1.10;;;;;;;11.72;66.09;95048.72;5111964;28;20028;-73
2022/04/28 07:08:12;;;;;;;9.00;6.13;;;;;;;11.74;66.36;95046.81;5110242;28;20050;-73
2022/04/28 07:10:40;;;;;;;2.53;1.45;;;;;;;11.67;66.12;95056.09;5093377;28;20032;-73
2022/04/28 07:13:05;;;;;;;4.57;2.05;;;;;;;11.70;66.42;95066.25;5111471;28;20028;-73
2022/04/28 07:15:33;;;;;;;5.10;1.90;;;;;;;11.66;66.58;95054.44;5110225;28;20623;-73
2022/04/28 07:17:59;;;;;;;2.30;1.13;;;;;;;11.71;66.35;95058.31;5110114;28;20059;-73
2022/04/28 07:20:24;;;;;;;1.45;0.90;;;;;;;11.77;66.16;95054.38;5111766;28;20085;-73
2022/04/28 07:22:50;;;;;;;2.53;1.10;;;;;;;11.78;66.75;95058.63;5111327;28;20035;-73
2022/04/28 07:25:15;;;;;;;5.32;2.58;;;;;;;11.82;66.69;95060.03;5110081;28;20042;-72
2022/04/28 07:27:41;;;;;;;2.63;1.30;;;;;;;11.84;66.72;95063.34;5127023;28;20024;-73
2022/04/28 07:30:06;;;;;;;2.00;1.10;;;;;;;11.91;66.40;95053.25;5111555;28;20109;-73
2022/04/28 07:32:32;;;;;;;4.22;2.20;;;;;;;11.94;66.13;95058.19;5110295;28;20020;-73
2022/04/28 07:34:58;;;;;;;6.57;2.15;;;;;;;12.02;65.87;95064.41;5111421;28;20131;-73
2022/04/28 07:37:23;;;;;;;2.80;1.83;;;;;;;12.02;65.77;95068.78;5111179;28;20027;-73
2022/04/28 07:39:49;;;;;;;2.33;1.50;;;;;;;12.11;65.57;95069.78;5111329;28;20496;-72
2022/04/28 07:42:14;;;;;;;1.60;1.20;;;;;;;11.99;66.18;95067.25;5111218;28;20073;-73
2022/04/28 07:44:40;;;;;;;2.40;1.13;;;;;;;12.13;66.21;95073.09;5110064;28;20031;-73
2022/04/28 07:47:05;;;;;;;2.17;1.00;;;;;;;12.18;65.92;95070.94;5111033;28;20105;-73
2022/04/28 07:49:30;;;;;;;4.13;1.15;;;;;;;12.21;65.73;95071.47;5111231;28;20028;-73
2022/04/28 07:51:56;;;;;;;1.80;1.00;;;;;;;12.28;65.41;95069.16;5092741;28;20031;-72
2022/04/28 07:54:21;;;;;;;1.70;0.90;;;;;;;12.37;65.12;95086.63;5111181;28;20034;-73
2022/04/28 07:56:47;;;;;;;4.35;1.13;;;;;;;12.32;64.75;95072.34;5113897;28;20023;-72
2022/04/28 07:59:12;;;;;;;4.60;1.27;;;;;;;12.35;64.61;95080.72;5115340;28;20027;-73
2022/04/28 08:01:38;;;;;;;4.95;1.00;;;;;;;12.22;65.25;95086.13;5113837;28;20477;-72
2022/04/28 08:04:04;;;;;;;1.98;0.90;;;;;;;12.34;65.02;95084.31;5113718;28;20065;-73
2022/04/28 08:06:29;;;;;;;2.90;0.90;;;;;;;12.38;65.09;95088.28;5113683;28;20027;-72
2022/04/28 08:08:55;;;;;;;5.30;1.17;;;;;;;12.37;65.18;95077.97;5114836;28;20039;-73
2022/04/28 08:11:20;;;;;;;2.13;1.00;;;;;;;12.40;65.13;95078.56;5096559;28;20057;-72
2022/04/28 08:13:46;;;;;;;4.93;1.48;;;;;;;12.28;65.79;95084.78;5114553;28;20054;-73
2022/04/28 08:16:11;;;;;;;2.75;1.30;;;;;;;12.41;65.38;95088.00;5115139;27;20044;-73
2022/04/28 08:18:39;;;;;;;3.25;0.95;;;;;;;12.52;64.80;95085.31;5113512;28;20459;-73
2022/04/28 08:21:04;;;;;;;3.50;1.30;;;;;;;12.49;64.58;95082.97;5114858;28;20028;-73
2022/04/28 08:23:30;;;;;;;4.15;1.23;;;;;;;12.59;64.35;95088.22;5113302;28;20072;-73
2022/04/28 08:25:55;;;;;;;3.58;1.23;;;;;;;12.57;64.29;95089.31;5114515;28;20102;-73
2022/04/28 08:28:20;;;;;;;3.78;1.50;;;;;;;12.65;64.01;95092.09;5096270;28;20027;-73
2022/04/28 08:30:48;;;;;;;1.52;1.10;;;;;;;12.68;64.23;95091.81;5113427;28;20039;-73
2022/04/28 08:33:15;;;;;;;1.92;1.30;;;;;;;12.67;64.10;95092.75;5114454;28;20027;-73
2022/04/28 08:35:40;;;;;;;2.47;1.30;;;;;;;12.64;63.88;95093.84;5114723;27;20126;-73
2022/04/28 08:38:06;;;;;;;1.88;1.40;;;;;;;12.64;64.20;95103.44;5114415;28;20023;-73
2022/04/28 08:40:31;;;;;;;2.53;1.52;;;;;;;12.67;63.67;95100.56;5113275;28;20031;-73
2022/04/28 08:42:58;;;;;;;2.78;1.90;;;;;;;12.61;64.06;95098.50;5113031;28;20102;-72
2022/04/28 08:45:28;;;;;;;3.33;1.75;;;;;;;12.64;63.97;95099.06;5113127;28;20027;-73
2022/04/28 08:47:56;;;;;;;2.92;1.73;;;;;;;12.69;63.79;95101.28;5112858;28;20034;-73
2022/04/28 08:50:22;;;;;;;2.75;1.60;;;;;;;12.62;64.23;95105.34;5113054;28;20067;-72
2022/04/28 08:52:48;;;;;;;4.78;2.42;;;;;;;12.70;63.69;95103.75;5113987;28;20019;-73
2022/04/28 08:55:16;;;;;;;5.18;1.77;;;;;;;12.78;63.61;95100.47;5112871;28;20059;-73
2022/04/28 08:57:41;;;;;;;2.53;1.50;;;;;;;12.82;63.21;95107.06;5112757;28;20085;-73
2022/04/28 09:00:07;;;;;;;3.05;1.30;;;;;;;12.81;63.17;95102.78;5112559;28;20032;-73
2022/04/28 09:02:33;;;;;;;3.70;1.20;;;;;;;12.84;63.14;95104.31;5113908;28;20020;-73
2022/04/28 09:05:07;;;;;;;2.92;1.30;;;;;;;12.78;63.26;95099.66;5114070;28;20061;-73
2022/04/28 09:07:37;;;;;;;4.38;1.70;;;;;;;12.75;64.14;95104.16;5094655;28;20512;-73
2022/04/28 09:10:26;;;;;;;5.97;1.58;;;;;;;12.79;64.05;95102.13;5112670;28;20048;-72
2022/04/28 09:15:56;;;;;;;3.67;1.42;;;;;;;12.82;63.96;95108.88;5113442;28;20441;-73
2022/04/28 09:18:22;;;;;;;2.90;1.73;;;;;;;12.79;63.61;95088.25;5095628;28;20096;-73
2022/04/28 09:20:47;;;;;;;4.25;1.60;;;;;;;12.93;63.88;95116.56;5095395;28;20477;-73
2022/04/28 09:23:13;;;;;;;3.83;1.50;;;;;;;12.94;63.36;95110.38;5112264;28;20469;-72
2022/04/28 09:25:39;;;;;;;2.70;1.73;;;;;;;13.00;63.34;95114.25;5112352;28;20061;-73
2022/04/28 09:28:04;;;;;;;5.05;1.70;;;;;;;13.05;63.53;95109.44;5113336;28;20077;-73
2022/04/28 09:30:49;;;;;;;35.78;20.73;;;;;;;12.93;63.26;95099.13;5111961;28;20031;-73
2022/04/28 09:33:15;;;;;;;15.02;9.00;;;;;;;13.08;63.49;95111.78;5112212;28;20036;-73
2022/04/28 09:35:48;;;;;;;61.70;32.30;;;;;;;13.12;63.99;95116.59;5113658;28;20489;-73
2022/04/28 09:38:13;;;;;;;19.58;15.00;;;;;;;13.05;63.19;95112.06;5113238;28;20435;-72
2022/04/28 09:43:22;;;;;;;6.30;5.35;;;;;;;13.13;63.07;95115.63;5112123;28;20068;-73
2022/04/28 09:45:51;;;;;;;5.80;3.97;;;;;;;13.10;63.23;95115.09;5113168;28;20024;-73
2022/04/28 09:48:17;;;;;;;7.30;3.53;;;;;;;13.01;63.75;95113.28;5112048;28;20529;-73
2022/04/28 09:50:43;;;;;;;6.45;4.00;;;;;;;12.92;63.79;95114.91;5094748;28;20047;-73
2022/04/28 09:53:08;;;;;;;5.22;3.90;;;;;;;12.95;63.65;95107.66;5112891;28;20020;-73
2022/04/28 09:55:34;;;;;;;4.65;2.80;;;;;;;13.04;63.36;95107.78;5111747;28;20039;-73
2022/04/28 09:57:59;;;;;;;3.25;2.65;;;;;;;13.10;63.39;95110.69;5112765;28;20078;-73
2022/04/28 10:00:25;;;;;;;6.30;3.20;;;;;;;13.12;63.12;95105.31;5113172;28;20511;-73
2022/04/28 10:02:50;;;;;;;5.68;3.30;;;;;;;12.99;63.40;95103.00;5111499;28;20024;-72
2022/04/28 10:05:15;;;;;;;8.02;4.00;;;;;;;13.06;63.89;95103.25;5111534;28;20035;-73
2022/04/28 10:07:42;;;;;;;5.07;2.60;;;;;;;13.08;63.30;95106.56;5111345;28;20485;-73
2022/04/28 10:10:07;;;;;;;5.97;2.50;;;;;;;13.19;63.21;95103.84;5111221;28;20476;-73
2022/04/28 10:12:33;;;;;;;5.55;2.20;;;;;;;13.18;63.28;95099.59;5094316;28;20118;-72
2022/04/28 10:14:59;;;;;;;6.07;4.90;;;;;;;13.24;62.70;95103.44;5111056;28;20505;-73
2022/04/28 10:17:36;;;;;;;6.20;2.63;;;;;;;13.33;62.04;95098.25;5111104;28;20206;-72
2022/04/28 10:20:10;;;;;;;4.57;2.90;;;;;;;13.32;62.18;95096.59;5111288;28;20047;-73
2022/04/28 10:22:36;;;;;;;5.07;3.10;;;;;;;13.42;62.33;95101.81;5111175;28;20035;-72
2022/04/28 10:33:22;;;;;;;8.48;6.13;;;;;;;13.61;60.57;95093.97;5111144;28;20084;-73
2022/04/28 10:35:48;;;;;;;6.28;3.97;;;;;;;13.70;60.37;95094.94;5110789;28;20405;-73
2022/04/28 10:38:30;;;;;;;5.82;3.17;;;;;;;13.75;60.06;95089.31;5112053;28;20028;-74
2022/04/28 10:41:10;;;;;;;5.00;3.53;;;;;;;13.70;60.26;95087.09;5111887;28;20390;-73
2022/04/28 10:43:39;;;;;;;5.85;3.45;;;;;;;13.70;59.97;95079.25;5111926;28;20495;-73
2022/04/28 10:46:08;;;;;;;5.55;3.25;;;;;;;13.75;60.19;95084.91;5110680;28;20408;-73
2022/04/28 10:48:35;;;;;;;4.30;2.60;;;;;;;13.80;59.74;95085.31;5111764;28;20603;-73
2022/04/28 10:51:16;;;;;;;5.22;3.10;;;;;;;13.82;60.02;95078.16;5093617;28;20028;-73
2022/04/28 10:54:03;;;;;;;6.07;4.57;;;;;;;13.88;60.35;95083.78;5110624;28;20027;-73
2022/04/28 10:56:31;;;;;;;4.30;3.40;;;;;;;13.94;59.61;95088.44;5110515;28;20023;-73
2022/04/28 10:58:58;;;;;;;6.55;2.78;;;;;;;13.97;59.17;95085.56;5110326;28;20451;-73
2022/04/28 11:01:33;;;;;;;5.32;3.55;;;;;;;13.97;59.64;95088.16;5110678;28;20096;-73
2022/04/28 11:04:00;;;;;;;35.85;25.85;;;;;;;13.94;59.67;95088.44;5110309;28;20620;-73
2022/04/28 11:06:36;;;;;;;10.60;7.85;;;;;;;13.97;59.33;95085.56;5110376;28;20066;-74
2022/04/28 11:09:03;;;;;;;6.68;4.13;;;;;;;14.07;59.35;95083.75;5110292;28;20100;-73
2022/04/28 11:11:49;;;;;;;10.55;3.63;;;;;;;14.15;58.99;95081.25;5110327;28;20028;-73
2022/04/28 11:14:14;;;;;;;6.90;3.38;;;;;;;14.17;58.69;95073.25;5111110;28;20052;-73
2022/04/28 11:16:41;;;;;;;6.85;3.15;;;;;;;14.21;58.74;95079.84;5110253;28;20075;-73
2022/04/28 11:19:07;;;;;;;4.40;2.80;;;;;;;14.26;58.07;95086.31;5110198;28;20071;-73
2022/04/28 11:21:39;;;;;;;6.03;3.03;;;;;;;14.25;58.38;95084.63;5111385;28;20046;-73
2022/04/28 11:24:05;;;;;;;4.47;3.00;;;;;;;14.39;57.51;95072.91;5093981;28;20493;-73
2022/04/28 11:26:30;;;;;;;8.85;3.20;;;;;;;14.35;57.73;95081.16;5110076;28;20030;-73
2022/04/28 11:28:56;;;;;;;4.97;3.10;;;;;;;14.43;57.93;95079.50;5109807;28;20123;-73
2022/04/28 11:31:21;;;;;;;4.65;3.10;;;;;;;14.47;58.07;95069.56;5109648;28;20035;-74
2022/04/28 11:33:50;;;;;;;4.80;3.28;;;;;;;14.56;57.50;95079.19;5109977;28;20035;-73
2022/04/28 11:36:26;;;;;;;4.55;3.45;;;;;;;14.58;57.78;95079.03;5111186;28;20077;-73
2022/04/28 11:38:57;;;;;;;7.10;3.20;;;;;;;14.67;57.51;95070.31;5093007;28;20070;-73
2022/04/28 11:41:31;;;;;;;6.03;3.10;;;;;;;14.70;57.14;95078.69;5092974;28;20028;-73
2022/04/28 11:44:06;;;;;;;5.90;2.97;;;;;;;14.73;57.28;95069.72;5092941;28;20110;-73
2022/04/28 11:46:41;;;;;;;9.80;3.40;;;;;;;14.75;56.98;95065.19;5109904;28;20034;-73
2022/04/28 11:49:06;;;;;;;5.63;3.10;;;;;;;14.85;56.95;95063.34;5093671;28;20085;-73
2022/04/28 11:51:32;;;;;;;6.43;3.20;;;;;;;14.96;56.51;95070.16;5092958;28;20036;-73
2022/04/28 11:53:57;;;;;;;6.85;3.50;;;;;;;15.03;56.70;95063.34;5111036;28;20027;-73
2022/04/28 11:56:28;;;;;;;7.00;3.75;;;;;;;15.07;56.05;95054.25;5109823;28;20031;-73
2022/04/28 11:58:54;;;;;;;5.07;3.28;;;;;;;15.10;56.13;95072.28;5109700;28;20031;-73
2022/04/28 12:01:20;;;;;;;5.07;3.20;;;;;;;15.10;55.54;95059.19;5109758;28;20126;-73
2022/04/28 12:03:50;;;;;;;9.25;3.60;;;;;;;15.16;56.44;95055.97;5109691;28;20031;-73